Latest Weather Observations for Thevenard

IDS60801

Issued at 1:31 pm CDT Tuesday 9 February 2016 (issued every 30 minutes, with the page automatically refreshed every 10 minutes)

About weather observations | Map of weather stations | Latest weather observations for SA | Other Formats
Station Details ID: 018200 Name: THEVENARD WIND Lat: -32.18 Lon: 133.63 Height: 8.54 m
Data from the previous 72 hours. | See also: Recent months for locations in South Australia
Date/Time
CDT
Temp
°C
App
Temp
°C
Dew
Point
Rel
Hum
%
Delta-T
°C
Wind Press
QNH
hPa
Press
MSL
hPa
Rain
since 9 am
mm
Dir
 
Spd
km/h
Gust
km/h
Spd
kts
Gust
kts
09/01:30pm - - - - - SSE 28 32 15 17 - - -
09/01:00pm - - - - - SSE 26 30 14 16 - - -
09/12:30pm - - - - - SSE 26 30 14 16 - - -
09/12:00pm - - - - - SSE 24 28 13 15 - - -
09/11:30am - - - - - SSE 20 24 11 13 - - -
09/11:00am - - - - - SSE 19 22 10 12 - - -
09/10:30am - - - - - SE 17 22 9 12 - - -
09/10:00am - - - - - SE 19 26 10 14 - - -
09/09:30am - - - - - SE 24 28 13 15 - - -
09/09:00am - - - - - SE 24 28 13 15 - - -
09/08:30am - - - - - ESE 19 26 10 14 - - -
09/08:00am - - - - - ESE 20 26 11 14 - - -
09/07:30am - - - - - SE 22 26 12 14 - - -
09/07:00am - - - - - SE 24 28 13 15 - - -
09/06:30am - - - - - SE 22 26 12 14 - - -
09/06:00am - - - - - ESE 26 32 14 17 - - -
09/05:30am - - - - - ESE 24 33 13 18 - - -
09/05:00am - - - - - ESE 26 37 14 20 - - -
09/04:30am - - - - - ESE 26 43 14 23 - - -
09/04:00am - - - - - ESE 28 35 15 19 - - -
09/03:30am - - - - - ESE 28 35 15 19 - - -
09/03:00am - - - - - SE 24 30 13 16 - - -
09/02:30am - - - - - SE 28 33 15 18 - - -
09/02:00am - - - - - SE 30 35 16 19 - - -
09/01:30am - - - - - SE 32 35 17 19 - - -
09/01:00am - - - - - SE 32 37 17 20 - - -
09/12:30am - - - - - SE 33 39 18 21 - - -
09/12:00am - - - - - SE 35 41 19 22 - - -
 
Date/Time
CDT
Temp
°C
App
Temp
°C
Dew
Point
Rel
Hum
%
Delta-T
°C
Wind Press
QNH
hPa
Press
MSL
hPa
Rain
since 9 am
mm
Dir
 
Spd
km/h
Gust
km/h
Spd
kts
Gust
kts
08/11:30pm - - - - - SE 39 46 21 25 - - -
08/11:00pm - - - - - SE 35 44 19 24 - - -
08/10:30pm - - - - - SE 41 48 22 26 - - -
08/10:00pm - - - - - SSE 41 50 22 27 - - -
08/09:30pm - - - - - SSE 41 48 22 26 - - -
08/09:00pm - - - - - SSE 39 46 21 25 - - -
08/08:30pm - - - - - SSE 41 48 22 26 - - -
08/08:00pm - - - - - SSE 43 48 23 26 - - -
08/07:30pm - - - - - SSE 43 50 23 27 - - -
08/07:00pm - - - - - SSE 44 50 24 27 - - -
08/06:30pm - - - - - SSE 44 52 24 28 - - -
08/06:00pm - - - - - SSE 43 50 23 27 - - -
08/05:30pm - - - - - SSE 43 50 23 27 - - -
08/05:00pm - - - - - SSE 41 48 22 26 - - -
08/04:30pm - - - - - SSE 43 48 23 26 - - -
08/04:00pm - - - - - SSE 41 48 22 26 - - -
08/03:30pm - - - - - SSE 39 48 21 26 - - -
08/03:00pm - - - - - SSE 39 44 21 24 - - -
08/02:30pm - - - - - SSE 35 43 19 23 - - -
08/02:00pm - - - - - SSE 41 46 22 25 - - -
08/01:30pm - - - - - SSE 37 44 20 24 - - -
08/01:00pm - - - - - SSE 37 43 20 23 - - -
08/12:30pm - - - - - SSE 35 39 19 21 - - -
08/12:00pm - - - - - SSE 32 37 17 20 - - -
08/11:30am - - - - - SSE 30 33 16 18 - - -
08/11:00am - - - - - SSE 28 33 15 18 - - -
08/10:30am - - - - - SSE 28 33 15 18 - - -
08/10:00am - - - - - ESE 28 37 15 20 - - -
08/09:30am - - - - - SE 26 33 14 18 - - -
08/09:00am - - - - - SE 28 37 15 20 - - -
08/08:30am - - - - - SE 30 37 16 20 - - -
08/08:00am - - - - - SE 24 33 13 18 - - -
08/07:30am - - - - - SE 30 35 16 19 - - -
08/07:00am - - - - - SE 28 35 15 19 - - -
08/06:30am - - - - - SE 30 39 16 21 - - -
08/06:00am - - - - - SE 30 37 16 20 - - -
08/05:30am - - - - - SE 32 39 17 21 - - -
08/05:00am - - - - - SE 32 37 17 20 - - -
08/04:30am - - - - - SE 33 39 18 21 - - -
08/04:00am - - - - - SE 33 41 18 22 - - -
08/03:30am - - - - - SE 35 41 19 22 - - -
08/03:00am - - - - - SE 39 44 21 24 - - -
08/02:30am - - - - - SE 41 48 22 26 - - -
08/02:00am - - - - - SSE 41 50 22 27 - - -
08/01:30am - - - - - SSE 43 50 23 27 - - -
08/01:00am - - - - - SSE 43 52 23 28 - - -
08/12:30am - - - - - SE 41 46 22 25 - - -
08/12:00am - - - - - SSE 41 46 22 25 - - -
 
Date/Time
CDT
Temp
°C
App
Temp
°C
Dew
Point
Rel
Hum
%
Delta-T
°C
Wind Press
QNH
hPa
Press
MSL
hPa
Rain
since 9 am
mm
Dir
 
Spd
km/h
Gust
km/h
Spd
kts
Gust
kts
07/11:30pm - - - - - SE 35 43 19 23 - - -
07/11:00pm - - - - - SSE 35 43 19 23 - - -
07/10:30pm - - - - - SSE 37 46 20 25 - - -
07/10:00pm - - - - - SSE 39 50 21 27 - - -
07/09:30pm - - - - - SSE 37 48 20 26 - - -
07/09:00pm - - - - - SSE 35 43 19 23 - - -
07/08:30pm - - - - - SSE 35 46 19 25 - - -
07/08:00pm - - - - - SSE 35 41 19 22 - - -
07/07:30pm - - - - - SSE 39 46 21 25 - - -
07/07:00pm - - - - - SSE 37 44 20 24 - - -
07/06:30pm - - - - - SSE 37 44 20 24 - - -
07/06:00pm - - - - - SSE 39 46 21 25 - - -
07/05:30pm - - - - - SSE 39 46 21 25 - - -
07/05:00pm - - - - - SSE 39 46 21 25 - - -
07/04:30pm - - - - - SSE 37 43 20 23 - - -
07/04:00pm - - - - - SSE 37 43 20 23 - - -
07/03:30pm - - - - - SSE 33 41 18 22 - - -
07/03:00pm - - - - - SSE 35 43 19 23 - - -
07/02:30pm - - - - - SSE 33 39 18 21 - - -
07/02:00pm - - - - - SSE 33 41 18 22 - - -
07/01:30pm - - - - - SSE 35 41 19 22 - - -
07/01:00pm - - - - - SSE 32 37 17 20 - - -
07/12:30pm - - - - - SSE 30 35 16 19 - - -
07/12:00pm - - - - - SSE 28 33 15 18 - - -
07/11:30am - - - - - SSE 26 32 14 17 - - -
07/11:00am - - - - - SSE 24 32 13 17 - - -
07/10:30am - - - - - SE 26 33 14 18 - - -
07/10:00am - - - - - SE 24 32 13 17 - - -
07/09:30am - - - - - SE 26 35 14 19 - - -
07/09:00am - - - - - SE 28 33 15 18 - - -
07/08:30am - - - - - SE 28 35 15 19 - - -
07/08:00am - - - - - SE 32 39 17 21 - - -
07/07:30am - - - - - SE 33 41 18 22 - - -
07/07:00am - - - - - SE 35 41 19 22 - - -
07/06:30am - - - - - SSE 35 41 19 22 - - -
07/06:00am - - - - - SSE 35 41 19 22 - - -
07/05:30am - - - - - SSE 37 43 20 23 - - -
07/05:00am - - - - - SSE 35 41 19 22 - - -
07/04:30am - - - - - SSE 32 39 17 21 - - -
07/04:00am - - - - - SSE 32 37 17 20 - - -
07/03:30am - - - - - SSE 26 30 14 16 - - -
07/03:00am - - - - - SSE 22 28 12 15 - - -
07/02:30am - - - - - SE 20 26 11 14 - - -
07/02:00am - - - - - SE 24 28 13 15 - - -
07/01:30am - - - - - SE 28 33 15 18 - - -
07/01:00am - - - - - SE 35 46 19 25 - - -
07/12:30am - - - - - SE 37 46 20 25 - - -
07/12:00am - - - - - SE 35 44 19 24 - - -
 
Date/Time
CDT
Temp
°C
App
Temp
°C
Dew
Point
Rel
Hum
%
Delta-T
°C
Wind Press
QNH
hPa
Press
MSL
hPa
Rain
since 9 am
mm
Dir
 
Spd
km/h
Gust
km/h
Spd
kts
Gust
kts
06/11:30pm - - - - - SSE 37 44 20 24 - - -
06/11:00pm - - - - - SSE 37 46 20 25 - - -
06/10:30pm - - - - - SSE 37 46 20 25 - - -
06/10:00pm - - - - - SSE 37 44 20 24 - - -
06/09:30pm - - - - - SSE 39 46 21 25 - - -
06/09:00pm - - - - - SSE 37 44 20 24 - - -
06/08:30pm - - - - - SSE 35 43 19 23 - - -
06/08:00pm - - - - - SSE 37 44 20 24 - - -
06/07:30pm - - - - - SSE 35 41 19 22 - - -
06/07:00pm - - - - - SSE 35 41 19 22 - - -
06/06:30pm - - - - - SSE 35 41 19 22 - - -
06/06:00pm - - - - - SSE 35 41 19 22 - - -
06/05:30pm - - - - - SSE 33 39 18 21 - - -
06/05:00pm - - - - - SSE 33 39 18 21 - - -
06/04:30pm - - - - - SSE 35 43 19 23 - - -
06/04:00pm - - - - - SSE 35 43 19 23 - - -
06/03:30pm - - - - - SSE 33 39 18 21 - - -
06/03:00pm - - - - - S 32 37 17 20 - - -
06/02:30pm - - - - - S 30 35 16 19 - - -
06/02:00pm - - - - - SSE 30 35 16 19 - - -

Other Formats:

Comma delimited format used in spreadsheet applications
http://www.bom.gov.au/fwo/IDS60801/IDS60801.95653.axf

JavaScript Object Notation format (JSON) in row-major order
http://www.bom.gov.au/fwo/IDS60801/IDS60801.95653.json